Wagner, Pennsylvania
Current Conditions -  °F | °C
As of 10:15 PM on Monday 20 Oct 2014 (Local Time) from KUNV Reporting Station
Overcast Overcast  
Wind Chill: 50°   Ceiling: 10000
Heat Index: 50°   Visibility: 10mi
Dew Point: 39°   Wind: 3mph
Humidity: 65%   Direction: 280°W
Pressure: 29.9"   Gusts: NA
Location:  40.7125°N, 77.3707°W
Report Text: KUNV 210215Z AUTO 28003KT 10SM OVC100 10/04 A2990 RMK AO2 T01010037
Loading
Personal Weather Stations






























Interactive Weather Map
Tropical Storm Tracking
New forecast layout! Learn more

10-Day Weather Forecast

Advertisements
Track Severe Weather on mobile